Terminal Aerodrome Forecast
Issued by NWS

Home | Current Version | Previous Version | Graphics & Text | Print | Product List | Glossary On
Versions: 1 2 3 4 5 6 7 8 9 10 11 12 13 14
000
FTUS43 KUNR 211800 CCA
TAFGCC
TAF COR
KGCC 211803Z 2118/2218 25008KT P6SM SCT200
     FM220500 21016G26KT P6SM SCT200=

USA.gov is the U.S. government's official web portal to all federal, state and local government web resources and services.